sensor_id;sensor_type;location;lat;lon;timestamp;pressure;altitude;pressure_sealevel;temperature;humidity
44359;BME280;30077;52.474;13.326;2023-02-23T00:03:56;100730.22;;;5.20;100.00
44359;BME280;30077;52.474;13.326;2023-02-23T00:08:57;100740.81;;;5.20;100.00
44359;BME280;30077;52.474;13.326;2023-02-23T00:14:00;100734.72;;;5.17;100.00
44359;BME280;30077;52.474;13.326;2023-02-23T00:19:00;100730.34;;;5.14;100.00
44359;BME280;30077;52.474;13.326;2023-02-23T00:24:03;100718.91;;;5.14;100.00
44359;BME280;30077;52.474;13.326;2023-02-23T00:29:05;100725.97;;;5.12;100.00
44359;BME280;30077;52.474;13.326;2023-02-23T00:34:05;100725.16;;;5.10;100.00
44359;BME280;30077;52.474;13.326;2023-02-23T00:39:07;100720.75;;;5.10;100.00
44359;BME280;30077;52.474;13.326;2023-02-23T00:44:21;100717.34;;;5.05;100.00
44359;BME280;30077;52.474;13.326;2023-02-23T00:49:22;100709.41;;;5.05;100.00
44359;BME280;30077;52.474;13.326;2023-02-23T00:54:23;100709.41;;;5.05;100.00
44359;BME280;30077;52.474;13.326;2023-02-23T00:59:23;100712.19;;;4.97;100.00
44359;BME280;30077;52.474;13.326;2023-02-23T01:04:24;100712.22;;;4.96;100.00
44359;BME280;30077;52.474;13.326;2023-02-23T01:09:24;100718.31;;;4.99;100.00
44359;BME280;30077;52.474;13.326;2023-02-23T01:14:27;100714.75;;;5.02;100.00
44359;BME280;30077;52.474;13.326;2023-02-23T01:19:28;100710.41;;;4.99;100.00
44359;BME280;30077;52.474;13.326;2023-02-23T01:24:28;100702.50;;;4.98;100.00
44359;BME280;30077;52.474;13.326;2023-02-23T01:29:28;100700.81;;;4.94;100.00
44359;BME280;30077;52.474;13.326;2023-02-23T01:34:28;100699.22;;;4.87;100.00
44359;BME280;30077;52.474;13.326;2023-02-23T01:39:28;100690.38;;;4.88;100.00
44359;BME280;30077;52.474;13.326;2023-02-23T01:49:31;100680.72;;;4.87;100.00
44359;BME280;30077;52.474;13.326;2023-02-23T01:54:34;100679.94;;;4.81;100.00
44359;BME280;30077;52.474;13.326;2023-02-23T01:59:38;100678.13;;;4.83;100.00
44359;BME280;30077;52.474;13.326;2023-02-23T02:04:39;100679.13;;;4.79;100.00
44359;BME280;30077;52.474;13.326;2023-02-23T02:09:43;100668.66;;;4.72;100.00
44359;BME280;30077;52.474;13.326;2023-02-23T02:15:04;100661.66;;;4.71;100.00
44359;BME280;30077;52.474;13.326;2023-02-23T02:30:32;100657.44;;;4.62;100.00
44359;BME280;30077;52.474;13.326;2023-02-23T02:41:12;100645.19;;;4.58;100.00
44359;BME280;30077;52.474;13.326;2023-02-23T02:46:17;100634.63;;;4.58;100.00
44359;BME280;30077;52.474;13.326;2023-02-23T02:51:21;100646.94;;;4.59;100.00
44359;BME280;30077;52.474;13.326;2023-02-23T02:56:24;100639.13;;;4.53;100.00
44359;BME280;30077;52.474;13.326;2023-02-23T03:01:25;100638.25;;;4.54;100.00
44359;BME280;30077;52.474;13.326;2023-02-23T03:12:05;100625.97;;;4.50;100.00
44359;BME280;30077;52.474;13.326;2023-02-23T03:22:52;100625.00;;;4.55;100.00
44359;BME280;30077;52.474;13.326;2023-02-23T03:28:17;100626.81;;;4.52;100.00
44359;BME280;30077;52.474;13.326;2023-02-23T03:33:40;100625.97;;;4.50;100.00
44359;BME280;30077;52.474;13.326;2023-02-23T03:39:09;100612.94;;;4.42;100.00
44359;BME280;30077;52.474;13.326;2023-02-23T03:44:35;100615.66;;;4.38;100.00
44359;BME280;30077;52.474;13.326;2023-02-23T03:49:55;100613.13;;;4.33;100.00
44359;BME280;30077;52.474;13.326;2023-02-23T03:55:16;100602.63;;;4.28;100.00
44359;BME280;30077;52.474;13.326;2023-02-23T04:00:38;100598.41;;;4.21;100.00
44359;BME280;30077;52.474;13.326;2023-02-23T04:05:57;100605.59;;;4.13;100.00
44359;BME280;30077;52.474;13.326;2023-02-23T04:11:18;100601.31;;;4.07;100.00
44359;BME280;30077;52.474;13.326;2023-02-23T04:16:39;100602.25;;;4.05;100.00
44359;BME280;30077;52.474;13.326;2023-02-23T04:21:40;100607.47;;;4.08;100.00
44359;BME280;30077;52.474;13.326;2023-02-23T04:26:40;100602.25;;;4.05;100.00
44359;BME280;30077;52.474;13.326;2023-02-23T04:31:41;100604.88;;;4.05;100.00
44359;BME280;30077;52.474;13.326;2023-02-23T04:36:41;100601.47;;;4.00;100.00
44359;BME280;30077;52.474;13.326;2023-02-23T04:41:41;100598.88;;;3.97;100.00
44359;BME280;30077;52.474;13.326;2023-02-23T04:46:41;100595.34;;;3.98;100.00
44359;BME280;30077;52.474;13.326;2023-02-23T04:51:42;100587.47;;;3.96;100.00
44359;BME280;30077;52.474;13.326;2023-02-23T04:56:42;100582.25;;;3.92;100.00
44359;BME280;30077;52.474;13.326;2023-02-23T05:01:42;100581.44;;;3.90;100.00
44359;BME280;30077;52.474;13.326;2023-02-23T05:06:42;100587.63;;;3.89;100.00
44359;BME280;30077;52.474;13.326;2023-02-23T05:11:43;100579.75;;;3.85;100.00
44359;BME280;30077;52.474;13.326;2023-02-23T05:16:43;100579.75;;;3.85;100.00
44359;BME280;30077;52.474;13.326;2023-02-23T05:21:43;100577.97;;;3.84;100.00
44359;BME280;30077;52.474;13.326;2023-02-23T05:26:43;100576.34;;;3.77;100.00
44359;BME280;30077;52.474;13.326;2023-02-23T05:31:44;100578.16;;;3.75;100.00
44359;BME280;30077;52.474;13.326;2023-02-23T05:36:45;100576.50;;;3.71;100.00
44359;BME280;30077;52.474;13.326;2023-02-23T05:41:45;100583.56;;;3.69;100.00
44359;BME280;30077;52.474;13.326;2023-02-23T05:46:45;100588.88;;;3.66;100.00
44359;BME280;30077;52.474;13.326;2023-02-23T05:51:46;100597.75;;;3.62;100.00
44359;BME280;30077;52.474;13.326;2023-02-23T05:56:46;100603.06;;;3.59;100.00
44359;BME280;30077;52.474;13.326;2023-02-23T06:01:47;100604.88;;;3.57;100.00
44359;BME280;30077;52.474;13.326;2023-02-23T06:06:48;100612.84;;;3.54;100.00
44359;BME280;30077;52.474;13.326;2023-02-23T06:11:48;100611.97;;;3.53;100.00
44359;BME280;30077;52.474;13.326;2023-02-23T06:16:48;100611.13;;;3.53;100.00
44359;BME280;30077;52.474;13.326;2023-02-23T06:21:48;100610.25;;;3.51;100.00
44359;BME280;30077;52.474;13.326;2023-02-23T06:26:48;100605.84;;;3.51;100.00
44359;BME280;30077;52.474;13.326;2023-02-23T06:31:49;100621.63;;;3.56;100.00
44359;BME280;30077;52.474;13.326;2023-02-23T06:36:49;100618.91;;;3.60;100.00
44359;BME280;30077;52.474;13.326;2023-02-23T06:41:49;100623.97;;;3.71;100.00
44359;BME280;30077;52.474;13.326;2023-02-23T06:46:49;100629.03;;;3.83;100.00
44359;BME280;30077;52.474;13.326;2023-02-23T06:51:54;100625.22;;;4.00;100.00
44359;BME280;30077;52.474;13.326;2023-02-23T06:56:56;100623.19;;;4.14;100.00
44359;BME280;30077;52.474;13.326;2023-02-23T07:01:56;100625.53;;;4.28;100.00
44359;BME280;30077;52.474;13.326;2023-02-23T07:06:57;100631.41;;;4.42;100.00
44359;BME280;30077;52.474;13.326;2023-02-23T07:11:58;100627.69;;;4.54;100.00
44359;BME280;30077;52.474;13.326;2023-02-23T07:16:58;100634.53;;;4.61;100.00
44359;BME280;30077;52.474;13.326;2023-02-23T07:21:58;100623.50;;;4.82;100.00
44359;BME280;30077;52.474;13.326;2023-02-23T07:26:58;100626.06;;;4.87;100.00
44359;BME280;30077;52.474;13.326;2023-02-23T07:31:58;100625.22;;;4.87;100.00
44359;BME280;30077;52.474;13.326;2023-02-23T07:36:58;100625.66;;;5.05;100.00
44359;BME280;30077;52.474;13.326;2023-02-23T07:41:59;100622.84;;;5.13;100.00
44359;BME280;30077;52.474;13.326;2023-02-23T07:46:59;100619.75;;;5.31;100.00
44359;BME280;30077;52.474;13.326;2023-02-23T07:51:59;100616.19;;;5.32;100.00
44359;BME280;30077;52.474;13.326;2023-02-23T07:56:59;100616.03;;;5.39;100.00
44359;BME280;30077;52.474;13.326;2023-02-23T08:01:59;100615.06;;;5.43;100.00
44359;BME280;30077;52.474;13.326;2023-02-23T08:07:00;100617.63;;;5.46;100.00
44359;BME280;30077;52.474;13.326;2023-02-23T08:12:00;100618.28;;;5.55;100.00
44359;BME280;30077;52.474;13.326;2023-02-23T08:17:01;100624.13;;;5.68;100.00
44359;BME280;30077;52.474;13.326;2023-02-23T08:22:01;100615.31;;;5.68;100.00
44359;BME280;30077;52.474;13.326;2023-02-23T08:27:02;100606.22;;;5.78;100.00
44359;BME280;30077;52.474;13.326;2023-02-23T08:32:02;100619.25;;;5.86;100.00
44359;BME280;30077;52.474;13.326;2023-02-23T08:37:02;100607.56;;;5.94;100.00
44359;BME280;30077;52.474;13.326;2023-02-23T08:42:03;100613.44;;;6.07;100.00
44359;BME280;30077;52.474;13.326;2023-02-23T08:47:03;100607.63;;;6.25;100.00
44359;BME280;30077;52.474;13.326;2023-02-23T08:52:03;100620.66;;;6.33;100.00
44359;BME280;30077;52.474;13.326;2023-02-23T08:57:04;100620.47;;;6.39;100.00
44359;BME280;30077;52.474;13.326;2023-02-23T09:02:04;100614.03;;;6.48;100.00
44359;BME280;30077;52.474;13.326;2023-02-23T09:07:04;100612.63;;;6.66;100.00
44359;BME280;30077;52.474;13.326;2023-02-23T09:12:05;100621.53;;;6.63;100.00
44359;BME280;30077;52.474;13.326;2023-02-23T09:17:05;100628.34;;;6.72;100.00
44359;BME280;30077;52.474;13.326;2023-02-23T09:22:05;100625.47;;;6.80;99.62
44359;BME280;30077;52.474;13.326;2023-02-23T09:27:05;100629.91;;;7.07;100.00
44359;BME280;30077;52.474;13.326;2023-02-23T09:32:06;100621.38;;;7.26;99.20
44359;BME280;30077;52.474;13.326;2023-02-23T09:37:08;100628.19;;;7.34;99.09
44359;BME280;30077;52.474;13.326;2023-02-23T09:42:09;100617.06;;;7.50;100.00
44359;BME280;30077;52.474;13.326;2023-02-23T09:52:17;100631.09;;;8.05;95.06
44359;BME280;30077;52.474;13.326;2023-02-23T09:57:22;100614.88;;;8.39;93.08
44359;BME280;30077;52.474;13.326;2023-02-23T10:02:30;100611.59;;;8.78;91.11
44359;BME280;30077;52.474;13.326;2023-02-23T10:07:38;100615.88;;;9.05;90.90
44359;BME280;30077;52.474;13.326;2023-02-23T10:23:00;100615.09;;;10.08;85.88
44359;BME280;30077;52.474;13.326;2023-02-23T10:28:02;100613.94;;;9.95;86.18
44359;BME280;30077;52.474;13.326;2023-02-23T10:33:09;100609.50;;;10.15;86.08
44359;BME280;30077;52.474;13.326;2023-02-23T10:38:16;100608.44;;;10.19;86.88
44359;BME280;30077;52.474;13.326;2023-02-23T10:43:17;100608.16;;;10.45;87.00
44359;BME280;30077;52.474;13.326;2023-02-23T10:48:21;100608.22;;;10.64;85.83
44359;BME280;30077;52.474;13.326;2023-02-23T10:53:24;100600.47;;;10.77;86.00
44359;BME280;30077;52.474;13.326;2023-02-23T10:58:25;100605.19;;;10.91;85.30
44359;BME280;30077;52.474;13.326;2023-02-23T11:03:31;100591.16;;;11.04;84.46
44359;BME280;30077;52.474;13.326;2023-02-23T11:08:32;100587.78;;;10.82;86.16
44359;BME280;30077;52.474;13.326;2023-02-23T11:13:45;100591.59;;;10.95;85.70
44359;BME280;30077;52.474;13.326;2023-02-23T11:18:56;100587.41;;;11.08;85.52
44359;BME280;30077;52.474;13.326;2023-02-23T11:23:57;100589.50;;;11.38;84.19
44359;BME280;30077;52.474;13.326;2023-02-23T11:28:59;100596.13;;;11.48;83.74
44359;BME280;30077;52.474;13.326;2023-02-23T11:34:02;100583.50;;;11.52;84.21
44359;BME280;30077;52.474;13.326;2023-02-23T11:39:08;100577.28;;;11.69;83.32
44359;BME280;30077;52.474;13.326;2023-02-23T11:44:20;100572.25;;;11.80;82.80
44359;BME280;30077;52.474;13.326;2023-02-23T11:49:31;100552.25;;;11.89;83.43
44359;BME280;30077;52.474;13.326;2023-02-23T11:54:34;100548.19;;;12.15;82.06
44359;BME280;30077;52.474;13.326;2023-02-23T11:59:36;100552.09;;;12.25;82.52
44359;BME280;30077;52.474;13.326;2023-02-23T12:04:38;100537.47;;;12.48;80.80
44359;BME280;30077;52.474;13.326;2023-02-23T12:09:39;100540.50;;;12.58;81.11
44359;BME280;30077;52.474;13.326;2023-02-23T12:14:51;100534.44;;;12.54;80.63
44359;BME280;30077;52.474;13.326;2023-02-23T12:19:54;100538.56;;;12.44;81.77
44359;BME280;30077;52.474;13.326;2023-02-23T12:25:02;100543.06;;;12.43;82.19
44359;BME280;30077;52.474;13.326;2023-02-23T12:30:07;100538.41;;;12.47;81.98
44359;BME280;30077;52.474;13.326;2023-02-23T12:40:31;100530.13;;;12.36;83.47
44359;BME280;30077;52.474;13.326;2023-02-23T12:45:43;100521.47;;;12.31;83.65
44359;BME280;30077;52.474;13.326;2023-02-23T12:50:51;100525.41;;;12.23;84.10
44359;BME280;30077;52.474;13.326;2023-02-23T12:56:13;100524.13;;;12.15;84.96
44359;BME280;30077;52.474;13.326;2023-02-23T13:01:26;100519.13;;;11.91;86.69
44359;BME280;30077;52.474;13.326;2023-02-23T13:21:40;100510.91;;;12.12;87.21
44359;BME280;30077;52.474;13.326;2023-02-23T13:26:46;100500.88;;;11.99;87.47
44359;BME280;30077;52.474;13.326;2023-02-23T13:31:48;100504.66;;;11.95;88.48
44359;BME280;30077;52.474;13.326;2023-02-23T13:36:48;100506.00;;;11.87;88.80
44359;BME280;30077;52.474;13.326;2023-02-23T13:41:53;100501.03;;;11.62;90.39
44359;BME280;30077;52.474;13.326;2023-02-23T13:47:03;100516.47;;;11.56;91.38
44359;BME280;30077;52.474;13.326;2023-02-23T13:52:12;100511.09;;;11.39;92.87
44359;BME280;30077;52.474;13.326;2023-02-23T13:57:15;100514.72;;;11.21;94.36
44359;BME280;30077;52.474;13.326;2023-02-23T14:07:37;100514.75;;;11.02;97.91
44359;BME280;30077;52.474;13.326;2023-02-23T14:12:42;100514.34;;;10.92;99.36
44359;BME280;30077;52.474;13.326;2023-02-23T14:18:00;100521.22;;;10.79;100.00
44359;BME280;30077;52.474;13.326;2023-02-23T14:28:32;100519.50;;;10.40;100.00
44359;BME280;30077;52.474;13.326;2023-02-23T14:38:33;100522.47;;;10.13;100.00
44359;BME280;30077;52.474;13.326;2023-02-23T14:43:40;100519.00;;;10.11;100.00
44359;BME280;30077;52.474;13.326;2023-02-23T14:48:42;100522.97;;;10.03;100.00
44359;BME280;30077;52.474;13.326;2023-02-23T14:53:43;100511.34;;;9.85;100.00
44359;BME280;30077;52.474;13.326;2023-02-23T14:58:45;100515.06;;;9.81;100.00
44359;BME280;30077;52.474;13.326;2023-02-23T15:04:34;100522.38;;;9.76;100.00
44359;BME280;30077;52.474;13.326;2023-02-23T15:09:14;100513.88;;;9.68;100.00
44359;BME280;30077;52.474;13.326;2023-02-23T15:14:15;100516.13;;;9.56;100.00
44359;BME280;30077;52.474;13.326;2023-02-23T15:19:29;100507.75;;;9.45;100.00
44359;BME280;30077;52.474;13.326;2023-02-23T15:24:41;100508.00;;;9.39;100.00
44359;BME280;30077;52.474;13.326;2023-02-23T15:29:41;100503.88;;;9.32;100.00
44359;BME280;30077;52.474;13.326;2023-02-23T15:34:42;100509.28;;;9.30;100.00
44359;BME280;30077;52.474;13.326;2023-02-23T15:44:43;100508.78;;;9.21;100.00
44359;BME280;30077;52.474;13.326;2023-02-23T15:49:44;100510.50;;;9.22;100.00
44359;BME280;30077;52.474;13.326;2023-02-23T15:54:53;100512.63;;;9.13;100.00
44359;BME280;30077;52.474;13.326;2023-02-23T16:00:03;100512.88;;;9.07;100.00
44359;BME280;30077;52.474;13.326;2023-02-23T16:05:19;100503.59;;;8.96;100.00
44359;BME280;30077;52.474;13.326;2023-02-23T16:10:21;100492.09;;;8.95;100.00
44359;BME280;30077;52.474;13.326;2023-02-23T16:15:25;100493.16;;;8.91;100.00
44359;BME280;30077;52.474;13.326;2023-02-23T16:20:33;100499.53;;;8.87;100.00
44359;BME280;30077;52.474;13.326;2023-02-23T16:25:40;100491.69;;;8.84;100.00
44359;BME280;30077;52.474;13.326;2023-02-23T16:30:42;100491.75;;;8.82;100.00
44359;BME280;30077;52.474;13.326;2023-02-23T16:35:44;100482.22;;;8.77;100.00
44359;BME280;30077;52.474;13.326;2023-02-23T16:40:45;100495.50;;;8.77;100.00
44359;BME280;30077;52.474;13.326;2023-02-23T16:45:47;100492.97;;;8.74;100.00
44359;BME280;30077;52.474;13.326;2023-02-23T16:50:47;100486.03;;;8.70;100.00
44359;BME280;30077;52.474;13.326;2023-02-23T16:55:50;100481.91;;;8.62;100.00
44359;BME280;30077;52.474;13.326;2023-02-23T17:00:51;100485.66;;;8.57;100.00
44359;BME280;30077;52.474;13.326;2023-02-23T17:05:52;100490.09;;;8.56;100.00
44359;BME280;30077;52.474;13.326;2023-02-23T17:10:52;100488.63;;;8.49;100.00
44359;BME280;30077;52.474;13.326;2023-02-23T17:15:54;100491.41;;;8.46;100.00
44359;BME280;30077;52.474;13.326;2023-02-23T17:20:56;100497.84;;;8.40;100.00
44359;BME280;30077;52.474;13.326;2023-02-23T17:25:57;100491.53;;;8.43;100.00
44359;BME280;30077;52.474;13.326;2023-02-23T17:30:57;100493.34;;;8.42;100.00
44359;BME280;30077;52.474;13.326;2023-02-23T17:35:58;100497.75;;;8.42;100.00
44359;BME280;30077;52.474;13.326;2023-02-23T17:41:02;100487.13;;;8.42;100.00
44359;BME280;30077;52.474;13.326;2023-02-23T17:46:03;100494.31;;;8.40;100.00
44359;BME280;30077;52.474;13.326;2023-02-23T17:51:05;100485.56;;;8.36;100.00
44359;BME280;30077;52.474;13.326;2023-02-23T17:56:05;100479.41;;;8.34;100.00
44359;BME280;30077;52.474;13.326;2023-02-23T18:01:06;100475.91;;;8.34;100.00
44359;BME280;30077;52.474;13.326;2023-02-23T18:06:07;100474.97;;;8.35;100.00
44359;BME280;30077;52.474;13.326;2023-02-23T18:11:08;100480.44;;;8.32;100.00
44359;BME280;30077;52.474;13.326;2023-02-23T18:16:09;100473.25;;;8.34;100.00
44359;BME280;30077;52.474;13.326;2023-02-23T18:21:14;100474.97;;;8.35;100.00
44359;BME280;30077;52.474;13.326;2023-02-23T18:26:15;100468.59;;;8.40;100.00
44359;BME280;30077;52.474;13.326;2023-02-23T18:31:23;100472.19;;;8.39;100.00
44359;BME280;30077;52.474;13.326;2023-02-23T18:41:25;100468.84;;;8.33;100.00
44359;BME280;30077;52.474;13.326;2023-02-23T18:46:30;100475.22;;;8.29;100.00
44359;BME280;30077;52.474;13.326;2023-02-23T18:51:30;100469.03;;;8.28;100.00
44359;BME280;30077;52.474;13.326;2023-02-23T18:56:31;100477.06;;;8.27;100.00
44359;BME280;30077;52.474;13.326;2023-02-23T19:01:32;100470.03;;;8.26;100.00
44359;BME280;30077;52.474;13.326;2023-02-23T19:06:33;100464.00;;;8.20;100.00
44359;BME280;30077;52.474;13.326;2023-02-23T19:11:34;100464.00;;;8.20;100.00
44359;BME280;30077;52.474;13.326;2023-02-23T19:16:35;100461.34;;;8.20;100.00
44359;BME280;30077;52.474;13.326;2023-02-23T19:21:35;100458.81;;;8.17;100.00
44359;BME280;30077;52.474;13.326;2023-02-23T19:26:36;100463.09;;;8.22;100.00
44359;BME280;30077;52.474;13.326;2023-02-23T19:31:37;100452.56;;;8.18;100.00
44359;BME280;30077;52.474;13.326;2023-02-23T19:36:37;100449.25;;;8.13;100.00
44359;BME280;30077;52.474;13.326;2023-02-23T19:41:38;100447.50;;;8.12;100.00
44359;BME280;30077;52.474;13.326;2023-02-23T19:46:39;100452.81;;;8.12;100.00
44359;BME280;30077;52.474;13.326;2023-02-23T19:51:39;100454.56;;;8.13;100.00
44359;BME280;30077;52.474;13.326;2023-02-23T19:56:39;100451.72;;;8.18;100.00
44359;BME280;30077;52.474;13.326;2023-02-23T20:01:39;100448.53;;;8.08;100.00
44359;BME280;30077;52.474;13.326;2023-02-23T20:06:42;100447.50;;;8.12;100.00
44359;BME280;30077;52.474;13.326;2023-02-23T20:11:45;100461.69;;;7.64;100.00
44359;BME280;30077;52.474;13.326;2023-02-23T20:16:47;100469.25;;;7.25;100.00
44359;BME280;30077;52.474;13.326;2023-02-23T20:21:47;100469.72;;;7.11;100.00
44359;BME280;30077;52.474;13.326;2023-02-23T20:26:48;100472.75;;;7.00;100.00
44359;BME280;30077;52.474;13.326;2023-02-23T20:31:51;100469.31;;;6.97;100.00
44359;BME280;30077;52.474;13.326;2023-02-23T20:36:51;100474.44;;;7.03;100.00
44359;BME280;30077;52.474;13.326;2023-02-23T20:41:52;100465.88;;;6.95;100.00
44359;BME280;30077;52.474;13.326;2023-02-23T20:46:53;100469.38;;;6.95;100.00
44359;BME280;30077;52.474;13.326;2023-02-23T20:51:53;100458.59;;;7.02;100.00
44359;BME280;30077;52.474;13.326;2023-02-23T20:56:53;100460.56;;;6.95;100.00
44359;BME280;30077;52.474;13.326;2023-02-23T21:01:58;100449.97;;;6.95;100.00
44359;BME280;30077;52.474;13.326;2023-02-23T21:07:03;100456.44;;;6.86;100.00
44359;BME280;30077;52.474;13.326;2023-02-23T21:12:04;100455.69;;;6.83;100.00
44359;BME280;30077;52.474;13.326;2023-02-23T21:17:04;100452.72;;;6.92;100.00
44359;BME280;30077;52.474;13.326;2023-02-23T21:22:06;100448.09;;;6.97;100.00
44359;BME280;30077;52.474;13.326;2023-02-23T21:27:06;100433.31;;;6.90;100.00
44359;BME280;30077;52.474;13.326;2023-02-23T21:32:12;100438.69;;;6.88;100.00
44359;BME280;30077;52.474;13.326;2023-02-23T21:37:13;100443.13;;;6.88;100.00
44359;BME280;30077;52.474;13.326;2023-02-23T21:42:13;100433.38;;;6.88;100.00
44359;BME280;30077;52.474;13.326;2023-02-23T21:47:13;100432.63;;;6.85;100.00
44359;BME280;30077;52.474;13.326;2023-02-23T21:52:15;100434.56;;;6.80;100.00
44359;BME280;30077;52.474;13.326;2023-02-23T21:57:15;100423.72;;;6.86;100.00
44359;BME280;30077;52.474;13.326;2023-02-23T22:02:16;100422.28;;;6.77;100.00
44359;BME280;30077;52.474;13.326;2023-02-23T22:07:16;100425.13;;;6.71;100.00
44359;BME280;30077;52.474;13.326;2023-02-23T22:12:16;100422.63;;;6.66;100.00
44359;BME280;30077;52.474;13.326;2023-02-23T22:17:16;100405.84;;;6.66;100.00
44359;BME280;30077;52.474;13.326;2023-02-23T22:22:18;100403.22;;;6.66;100.00
44359;BME280;30077;52.474;13.326;2023-02-23T22:27:21;100406.81;;;6.63;100.00
44359;BME280;30077;52.474;13.326;2023-02-23T22:32:21;100397.75;;;6.70;100.00
44359;BME280;30077;52.474;13.326;2023-02-23T22:37:21;100395.16;;;6.69;100.00
44359;BME280;30077;52.474;13.326;2023-02-23T22:42:28;100389.84;;;6.69;100.00
44359;BME280;30077;52.474;13.326;2023-02-23T22:47:28;100391.50;;;6.71;100.00
44359;BME280;30077;52.474;13.326;2023-02-23T22:52:28;100379.91;;;6.75;100.00
44359;BME280;30077;52.474;13.326;2023-02-23T22:57:31;100372.19;;;6.68;100.00
44359;BME280;30077;52.474;13.326;2023-02-23T23:02:31;100367.88;;;6.65;100.00
44359;BME280;30077;52.474;13.326;2023-02-23T23:07:32;100367.22;;;6.59;100.00
44359;BME280;30077;52.474;13.326;2023-02-23T23:12:33;100365.25;;;6.64;100.00
44359;BME280;30077;52.474;13.326;2023-02-23T23:17:33;100367.88;;;6.65;100.00
44359;BME280;30077;52.474;13.326;2023-02-23T23:22:33;100355.44;;;6.67;100.00
44359;BME280;30077;52.474;13.326;2023-02-23T23:27:35;100367.88;;;6.65;100.00
44359;BME280;30077;52.474;13.326;2023-02-23T23:32:36;100357.38;;;6.62;100.00
44359;BME280;30077;52.474;13.326;2023-02-23T23:37:39;100347.63;;;6.63;100.00
44359;BME280;30077;52.474;13.326;2023-02-23T23:42:40;100351.41;;;6.56;100.00
44359;BME280;30077;52.474;13.326;2023-02-23T23:47:45;100341.56;;;6.59;100.00
44359;BME280;30077;52.474;13.326;2023-02-23T23:52:45;100340.75;;;6.57;100.00
44359;BME280;30077;52.474;13.326;2023-02-23T23:57:46;100340.63;;;6.62;100.00
